Tornado, West Virginia
Current Conditions -  °F | °C
As of 10:54 AM on Wednesday 26 Nov 2014 (Local Time) from KCRW Reporting Station
Light Snow Light Snow  
Wind Chill: 33°   Ceiling: 300
Heat Index: 33°   Visibility: 0.75mi
Dew Point: 33°   Wind: 0mph
Humidity: 100%   Direction: NA
Pressure: 30.08"   Gusts: NA
Location:  38.33°N, 81.86°W
Report Text: KCRW 261554Z 00000KT 3/4SM -SN BR OVC003 01/01 A3008 RMK AO2 SLP190 P0003 T00060006 RVRNO
Loading
Personal Weather Stations






























Interactive Weather Map New forecast layout! Learn more

10-Day Weather Forecast

Advertisements
Track Severe Weather on mobile